Time;durP1;ratioP1;P1;durP2;ratioP2;P2;SDS_P1;SDS_P2;PMS_P1;PMS_P2;Temp;Humidity;BMP_temperature;BMP_pressure;BME280_temperature;BME280_humidity;BME280_pressure;Samples;Min_cycle;Max_cycle;Signal;HPM_P1;HPM_P2
2021/09/20 00:01:27;;;;;;;8.35;4.55;;;12.50;99.90;;;;;;5095110;28;20036;-69
2021/09/20 00:03:53;;;;;;;9.25;6.03;;;12.50;99.90;;;;;;5094101;28;20048;-70
2021/09/20 00:06:18;;;;;;;8.05;4.85;;;12.50;99.90;;;;;;5095475;28;20044;-70
2021/09/20 00:08:44;;;;;;;6.97;4.30;;;12.50;99.90;;;;;;5094864;28;20040;-70
2021/09/20 00:11:10;;;;;;;8.48;5.45;;;12.50;99.90;;;;;;5095101;28;20381;-70
2021/09/20 00:13:36;;;;;;;8.88;4.90;;;12.50;99.90;;;;;;5095290;28;20064;-70
2021/09/20 00:16:02;;;;;;;8.40;4.47;;;12.50;99.90;;;;;;5094922;28;20071;-70
2021/09/20 00:18:27;;;;;;;6.60;4.60;;;12.50;99.90;;;;;;5094673;28;20036;-70
2021/09/20 00:20:53;;;;;;;6.55;4.75;;;12.40;99.90;;;;;;5093415;28;20040;-70
2021/09/20 00:23:19;;;;;;;7.88;5.18;;;12.40;99.90;;;;;;5093759;28;20032;-70
2021/09/20 00:25:44;;;;;;;7.00;5.75;;;12.50;99.90;;;;;;5093645;28;20116;-70
2021/09/20 00:28:10;;;;;;;8.68;4.68;;;12.40;99.90;;;;;;5095028;28;20036;-70
2021/09/20 00:30:40;;;;;;;13.85;5.55;;;12.40;99.90;;;;;;5093803;28;20484;-70
2021/09/20 00:33:06;;;;;;;7.13;4.55;;;12.40;99.90;;;;;;5093691;28;20048;-70
2021/09/20 00:35:32;;;;;;;7.88;5.00;;;12.40;99.90;;;;;;5093698;28;20051;-69
2021/09/20 00:37:57;;;;;;;7.43;5.32;;;12.30;99.90;;;;;;5094942;28;20032;-69
2021/09/20 00:40:23;;;;;;;9.10;5.07;;;12.30;99.90;;;;;;5094437;28;20093;-69
2021/09/20 00:42:48;;;;;;;8.38;5.45;;;12.40;99.90;;;;;;5094519;28;20032;-70
2021/09/20 00:45:14;;;;;;;7.43;5.00;;;12.40;99.90;;;;;;5094367;28;20543;-70
2021/09/20 00:47:40;;;;;;;9.95;4.90;;;12.40;99.90;;;;;;5094681;28;20044;-70
2021/09/20 00:50:07;;;;;;;9.07;5.35;;;12.40;99.90;;;;;;5094062;28;20076;-70
2021/09/20 00:52:32;;;;;;;8.27;5.13;;;12.40;99.90;;;;;;5093342;28;20146;-69
2021/09/20 00:54:58;;;;;;;7.90;5.30;;;12.30;99.90;;;;;;5094298;28;20464;-69
2021/09/20 00:57:24;;;;;;;9.90;5.88;;;12.30;99.90;;;;;;5094288;28;20119;-69
2021/09/20 00:59:50;;;;;;;7.55;5.28;;;12.30;99.90;;;;;;5092562;28;20412;-70
2021/09/20 01:02:15;;;;;;;8.90;5.22;;;12.30;99.90;;;;;;5094436;28;20044;-70
2021/09/20 01:04:41;;;;;;;9.88;5.93;;;12.30;99.90;;;;;;5092916;28;20040;-70
2021/09/20 01:07:07;;;;;;;8.50;5.43;;;12.30;99.90;;;;;;5093117;28;20032;-69
2021/09/20 01:09:36;;;;;;;9.05;5.90;;;12.30;99.90;;;;;;5092325;28;20123;-70
2021/09/20 01:12:02;;;;;;;7.90;5.47;;;12.30;99.90;;;;;;5094085;28;20468;-70
2021/09/20 01:14:28;;;;;;;11.05;6.43;;;12.30;99.90;;;;;;5094009;28;20036;-69
2021/09/20 01:16:54;;;;;;;8.85;5.43;;;12.30;99.90;;;;;;5092670;28;20494;-69
2021/09/20 01:19:19;;;;;;;7.65;5.45;;;12.40;99.90;;;;;;5093822;28;20036;-70
2021/09/20 01:21:45;;;;;;;10.48;5.53;;;12.30;99.90;;;;;;5093631;28;20389;-70
2021/09/20 01:24:11;;;;;;;8.60;5.32;;;12.40;99.90;;;;;;5092427;28;20048;-70
2021/09/20 01:26:36;;;;;;;9.98;5.40;;;12.30;99.90;;;;;;5093614;28;20077;-70
2021/09/20 01:29:06;;;;;;;8.60;5.45;;;12.30;99.90;;;;;;5093462;28;20028;-70
2021/09/20 01:31:32;;;;;;;9.90;6.22;;;12.30;99.90;;;;;;5093896;28;20539;-70
2021/09/20 01:33:58;;;;;;;8.65;5.57;;;12.30;99.90;;;;;;5092522;28;20123;-70
2021/09/20 01:36:23;;;;;;;10.05;5.85;;;12.20;99.90;;;;;;5092585;28;20405;-70
2021/09/20 01:38:49;;;;;;;10.32;5.35;;;12.30;99.90;;;;;;5093542;28;20127;-70
2021/09/20 01:41:14;;;;;;;11.30;6.47;;;12.30;99.90;;;;;;5093381;28;20043;-70
2021/09/20 01:43:40;;;;;;;9.90;5.20;;;12.30;99.90;;;;;;5093485;28;20035;-69
2021/09/20 01:46:06;;;;;;;7.43;5.63;;;12.30;99.90;;;;;;5093582;28;20039;-69
2021/09/20 01:48:31;;;;;;;10.55;5.68;;;12.30;99.90;;;;;;5093139;28;20116;-70
2021/09/20 01:50:57;;;;;;;8.65;5.78;;;12.20;99.90;;;;;;5093374;28;20045;-70
2021/09/20 01:53:22;;;;;;;14.18;6.18;;;12.20;99.90;;;;;;5093673;28;20502;-69
2021/09/20 01:55:48;;;;;;;8.43;5.85;;;12.20;99.90;;;;;;5092075;28;20093;-69
2021/09/20 01:58:14;;;;;;;7.00;5.32;;;12.20;99.90;;;;;;5092523;28;20050;-70
2021/09/20 02:00:43;;;;;;;7.60;5.43;;;12.30;99.90;;;;;;5075088;28;20040;-69
2021/09/20 02:03:10;;;;;;;8.13;5.55;;;12.20;99.90;;;;;;5093642;28;20038;-70
2021/09/20 02:05:36;;;;;;;7.95;5.00;;;12.30;99.90;;;;;;5091945;28;20040;-69
2021/09/20 02:08:02;;;;;;;8.90;5.95;;;12.30;99.90;;;;;;5093523;28;20038;-69
2021/09/20 02:10:27;;;;;;;11.93;5.75;;;12.30;99.90;;;;;;5091645;28;20039;-70
2021/09/20 02:12:53;;;;;;;7.93;5.90;;;12.30;99.90;;;;;;5093057;28;20075;-70
2021/09/20 02:15:18;;;;;;;8.25;5.68;;;12.30;99.90;;;;;;5092173;28;20032;-70
2021/09/20 02:17:44;;;;;;;8.85;5.88;;;12.40;99.90;;;;;;5092164;28;20040;-70
2021/09/20 02:20:11;;;;;;;8.63;5.60;;;12.40;99.90;;;;;;5092933;28;20044;-70
2021/09/20 02:22:36;;;;;;;10.02;5.47;;;12.30;99.90;;;;;;5095924;28;20484;-70
2021/09/20 02:25:07;;;;;;;7.68;5.60;;;12.30;99.90;;;;;;5097216;28;20028;-70
2021/09/20 02:27:34;;;;;;;8.15;5.82;;;12.30;99.90;;;;;;5097081;28;20541;-70
2021/09/20 02:30:02;;;;;;;7.63;4.97;;;12.40;99.90;;;;;;5096956;28;20122;-70
2021/09/20 02:32:28;;;;;;;8.90;6.32;;;12.30;99.90;;;;;;5096189;28;20404;-70
2021/09/20 02:34:54;;;;;;;8.52;5.40;;;12.40;99.90;;;;;;5095900;28;20044;-70
2021/09/20 02:37:19;;;;;;;8.70;5.80;;;12.40;99.90;;;;;;5095706;28;20468;-69
2021/09/20 02:39:45;;;;;;;9.90;5.63;;;12.40;99.90;;;;;;5096547;28;20097;-69
2021/09/20 02:42:10;;;;;;;8.45;5.13;;;12.40;99.90;;;;;;5096722;28;20051;-70
2021/09/20 02:44:36;;;;;;;9.57;5.47;;;12.40;99.90;;;;;;5095605;28;20043;-70
2021/09/20 02:47:01;;;;;;;9.80;5.88;;;12.40;99.90;;;;;;5096077;28;20423;-69
2021/09/20 02:49:27;;;;;;;8.05;5.70;;;12.40;99.90;;;;;;5096651;28;20463;-70
2021/09/20 02:51:53;;;;;;;8.93;5.95;;;12.50;99.90;;;;;;5096659;28;20036;-70
2021/09/20 02:54:18;;;;;;;8.30;4.90;;;12.50;99.90;;;;;;5095508;28;20484;-69
2021/09/20 02:56:44;;;;;;;11.07;6.00;;;12.50;99.90;;;;;;5096717;28;20039;-69
2021/09/20 02:59:09;;;;;;;9.75;5.65;;;12.50;99.90;;;;;;5096524;28;20040;-70
2021/09/20 03:01:35;;;;;;;7.40;5.43;;;12.50;99.90;;;;;;5096548;28;20069;-70
2021/09/20 03:04:00;;;;;;;11.23;5.68;;;12.50;99.90;;;;;;5096915;28;20051;-70
2021/09/20 03:06:26;;;;;;;8.20;5.78;;;12.50;99.90;;;;;;5095294;28;20487;-70
2021/09/20 03:08:52;;;;;;;9.30;5.30;;;12.50;99.90;;;;;;5096301;28;20040;-70
2021/09/20 03:11:18;;;;;;;8.55;5.47;;;12.50;99.90;;;;;;5096267;28;20036;-69
2021/09/20 03:13:43;;;;;;;9.70;5.60;;;12.50;99.90;;;;;;5095264;28;20036;-69
2021/09/20 03:16:09;;;;;;;9.57;5.43;;;12.50;99.90;;;;;;5096534;28;20039;-70
2021/09/20 03:18:34;;;;;;;8.60;5.35;;;12.50;99.90;;;;;;5096018;28;20144;-70
2021/09/20 03:21:00;;;;;;;9.55;5.72;;;12.60;99.90;;;;;;5095927;28;20131;-69
2021/09/20 03:23:26;;;;;;;8.18;5.13;;;12.60;99.90;;;;;;5094803;28;20044;-69
2021/09/20 03:25:52;;;;;;;8.80;5.22;;;12.60;99.90;;;;;;5096034;28;20371;-69
2021/09/20 03:28:17;;;;;;;9.98;5.90;;;12.60;99.90;;;;;;5096226;28;20115;-70
2021/09/20 03:30:43;;;;;;;8.07;5.40;;;12.60;99.90;;;;;;5077677;28;20404;-70
2021/09/20 03:33:09;;;;;;;8.02;5.53;;;12.70;99.90;;;;;;5095883;28;20039;-70
2021/09/20 03:35:34;;;;;;;8.43;5.57;;;12.70;99.90;;;;;;5096046;28;20117;-69
2021/09/20 03:38:00;;;;;;;9.90;5.53;;;12.70;99.90;;;;;;5095856;28;20051;-70
2021/09/20 03:40:25;;;;;;;6.93;4.95;;;12.70;99.90;;;;;;5094126;28;20051;-69
2021/09/20 03:42:51;;;;;;;10.23;5.75;;;12.70;99.90;;;;;;5094408;28;20040;-69
2021/09/20 03:45:16;;;;;;;7.93;5.63;;;12.70;99.90;;;;;;5077582;28;20396;-69
2021/09/20 03:47:42;;;;;;;13.60;5.93;;;12.70;99.90;;;;;;5095621;28;20059;-70
2021/09/20 03:50:10;;;;;;;8.45;6.25;;;12.70;99.90;;;;;;5095755;28;20062;-70
2021/09/20 03:52:36;;;;;;;7.93;5.38;;;12.70;99.90;;;;;;5094222;28;20059;-70
2021/09/20 03:55:03;;;;;;;9.05;5.65;;;12.70;99.90;;;;;;5095963;28;20044;-70
2021/09/20 03:57:29;;;;;;;8.23;5.13;;;12.70;99.90;;;;;;5095710;28;20036;-69
2021/09/20 03:59:54;;;;;;;8.82;5.78;;;12.80;99.90;;;;;;5095175;28;20036;-69
2021/09/20 04:02:20;;;;;;;7.47;5.18;;;12.80;99.90;;;;;;5095984;28;20035;-69
2021/09/20 04:04:45;;;;;;;9.20;5.30;;;12.80;99.90;;;;;;5095338;28;20036;-70
2021/09/20 04:07:12;;;;;;;10.93;5.30;;;12.80;99.90;;;;;;5093896;28;20094;-70
2021/09/20 04:09:38;;;;;;;9.45;5.15;;;12.90;99.90;;;;;;5095232;28;20190;-70
2021/09/20 04:12:04;;;;;;;8.73;5.45;;;12.90;99.90;;;;;;5095030;28;20107;-70
2021/09/20 04:14:30;;;;;;;7.75;4.88;;;12.80;99.90;;;;;;5095230;28;20066;-70
2021/09/20 04:16:55;;;;;;;9.05;5.95;;;12.90;99.90;;;;;;5093937;28;20040;-70
2021/09/20 04:19:21;;;;;;;7.43;4.97;;;12.80;99.90;;;;;;5094746;28;20036;-69
2021/09/20 04:21:46;;;;;;;6.93;4.97;;;12.80;99.90;;;;;;5094982;28;20044;-69
2021/09/20 04:24:12;;;;;;;8.15;4.57;;;12.80;99.90;;;;;;5095119;28;20036;-69
2021/09/20 04:26:38;;;;;;;7.75;5.28;;;12.80;99.90;;;;;;5095089;28;20392;-69
2021/09/20 04:29:03;;;;;;;8.30;5.10;;;12.80;99.90;;;;;;5094499;28;20476;-70
2021/09/20 04:31:29;;;;;;;9.32;5.68;;;12.80;99.90;;;;;;5094741;28;20050;-69
2021/09/20 04:33:54;;;;;;;9.50;5.82;;;12.90;99.90;;;;;;5076512;28;20050;-70
2021/09/20 04:36:20;;;;;;;8.23;5.13;;;12.80;99.90;;;;;;5095201;28;20380;-69
2021/09/20 04:38:46;;;;;;;8.23;5.40;;;12.90;99.90;;;;;;5094218;28;20040;-70
2021/09/20 04:41:13;;;;;;;7.03;5.03;;;12.90;99.90;;;;;;5093245;28;20101;-69
2021/09/20 04:43:38;;;;;;;7.38;5.00;;;12.80;99.90;;;;;;5092983;28;20082;-69
2021/09/20 04:46:04;;;;;;;7.32;4.72;;;12.80;99.90;;;;;;5094717;28;20369;-69
2021/09/20 04:48:29;;;;;;;10.73;5.40;;;12.90;99.90;;;;;;5094457;28;20537;-70
2021/09/20 04:50:57;;;;;;;7.88;4.88;;;12.90;99.90;;;;;;5094317;28;20571;-69
2021/09/20 04:53:23;;;;;;;9.32;5.18;;;12.90;99.90;;;;;;5094899;28;20055;-69
2021/09/20 04:55:48;;;;;;;9.70;5.20;;;12.90;99.90;;;;;;5093463;28;20043;-69
2021/09/20 04:58:14;;;;;;;10.80;5.63;;;12.80;99.90;;;;;;5094302;28;20119;-69
2021/09/20 05:00:41;;;;;;;9.25;5.13;;;12.80;99.90;;;;;;5092661;28;20404;-69
2021/09/20 05:03:06;;;;;;;7.50;5.00;;;12.80;99.90;;;;;;5092977;28;20035;-69
2021/09/20 05:05:32;;;;;;;13.18;4.72;;;12.90;99.90;;;;;;5093226;28;20043;-69
2021/09/20 05:07:58;;;;;;;5.43;4.53;;;12.90;99.90;;;;;;5093088;28;20488;-69
2021/09/20 05:10:24;;;;;;;10.45;5.55;;;12.80;99.90;;;;;;5092533;28;20484;-68
2021/09/20 05:12:49;;;;;;;6.38;4.75;;;12.80;99.90;;;;;;5094166;28;20586;-69
2021/09/20 05:15:16;;;;;;;8.80;4.75;;;12.80;99.90;;;;;;5094313;28;20054;-68
2021/09/20 05:17:42;;;;;;;13.23;5.78;;;12.80;99.90;;;;;;5093696;28;20036;-69
2021/09/20 05:20:09;;;;;;;7.28;4.93;;;12.90;99.90;;;;;;5093494;28;20040;-69
2021/09/20 05:22:35;;;;;;;6.32;4.43;;;12.80;99.90;;;;;;5093809;28;20028;-69
2021/09/20 05:25:01;;;;;;;9.18;5.80;;;12.90;99.90;;;;;;5094248;28;20081;-69
2021/09/20 05:27:28;;;;;;;9.35;5.68;;;12.90;99.90;;;;;;5093972;28;20032;-68
2021/09/20 05:29:55;;;;;;;12.40;5.22;;;12.90;99.90;;;;;;5093997;28;20044;-69
2021/09/20 05:32:21;;;;;;;7.55;4.72;;;12.90;99.90;;;;;;5092718;28;20500;-68
2021/09/20 05:34:46;;;;;;;12.77;5.63;;;12.90;99.90;;;;;;5093474;28;20032;-69
2021/09/20 05:37:12;;;;;;;9.75;5.57;;;12.80;99.90;;;;;;5092073;28;20048;-72
2021/09/20 05:39:37;;;;;;;10.82;4.95;;;12.90;99.90;;;;;;5091470;28;20110;-72
2021/09/20 05:42:03;;;;;;;6.68;5.00;;;12.80;99.90;;;;;;5090409;28;20048;-72
2021/09/20 05:44:29;;;;;;;7.20;4.43;;;12.90;99.90;;;;;;5093570;28;20157;-72
2021/09/20 05:46:54;;;;;;;6.57;4.45;;;12.80;99.90;;;;;;5092138;28;20392;-72
2021/09/20 05:49:20;;;;;;;7.70;4.70;;;12.80;99.90;;;;;;5093112;28;20044;-72
2021/09/20 05:51:45;;;;;;;8.10;4.55;;;12.80;99.90;;;;;;5093300;28;20501;-72
2021/09/20 05:54:11;;;;;;;14.02;5.82;;;12.90;99.90;;;;;;5092278;28;20048;-72
2021/09/20 05:56:37;;;;;;;7.18;5.00;;;12.80;99.90;;;;;;5093418;28;20477;-72
2021/09/20 05:59:03;;;;;;;7.57;5.10;;;12.90;99.90;;;;;;5093302;28;20078;-72
2021/09/20 06:01:29;;;;;;;6.90;4.50;;;12.80;99.90;;;;;;5091972;28;20044;-72
2021/09/20 06:03:54;;;;;;;10.25;5.03;;;12.90;99.90;;;;;;5093466;28;20038;-72
2021/09/20 06:06:20;;;;;;;8.50;4.53;;;12.90;99.90;;;;;;5093647;28;20032;-72
2021/09/20 06:08:45;;;;;;;9.43;5.97;;;12.90;99.90;;;;;;5093225;28;20047;-72
2021/09/20 06:11:12;;;;;;;5.70;4.40;;;12.90;99.90;;;;;;5093070;28;20076;-72
2021/09/20 06:13:38;;;;;;;7.13;5.05;;;12.90;99.90;;;;;;5093597;28;20536;-72
2021/09/20 06:16:04;;;;;;;8.57;5.15;;;12.90;99.90;;;;;;5093638;28;20067;-72
2021/09/20 06:18:30;;;;;;;11.30;4.75;;;12.90;99.90;;;;;;5092811;28;20052;-73
2021/09/20 06:20:55;;;;;;;8.75;4.97;;;12.90;99.90;;;;;;5091920;28;20054;-72
2021/09/20 06:23:21;;;;;;;7.43;5.05;;;12.90;99.90;;;;;;5093191;28;20040;-72
2021/09/20 06:25:47;;;;;;;8.75;5.35;;;12.90;99.90;;;;;;5091828;28;20384;-72
2021/09/20 06:28:12;;;;;;;7.50;4.72;;;12.90;99.90;;;;;;5093368;28;20036;-72
2021/09/20 06:30:38;;;;;;;7.35;5.05;;;12.90;99.90;;;;;;5092729;28;20043;-72
2021/09/20 06:33:04;;;;;;;7.47;5.25;;;13.00;99.90;;;;;;5093170;28;20051;-72
2021/09/20 06:35:29;;;;;;;9.82;4.95;;;13.00;99.90;;;;;;5091831;28;20036;-72
2021/09/20 06:37:55;;;;;;;7.90;5.15;;;13.00;99.90;;;;;;5092937;28;20072;-72
2021/09/20 06:40:21;;;;;;;6.57;4.40;;;13.00;99.90;;;;;;5092612;28;20063;-72
2021/09/20 06:42:47;;;;;;;8.63;5.00;;;13.00;99.90;;;;;;5091681;28;20476;-72
2021/09/20 06:45:13;;;;;;;6.93;4.95;;;13.00;99.90;;;;;;5093518;28;20085;-72
2021/09/20 06:47:38;;;;;;;9.57;4.30;;;13.10;99.90;;;;;;5092900;28;20546;-72
2021/09/20 06:50:05;;;;;;;7.97;4.80;;;13.10;99.90;;;;;;5092528;28;20131;-72
2021/09/20 06:52:31;;;;;;;7.15;4.18;;;13.10;99.90;;;;;;5093033;28;20403;-72
2021/09/20 06:54:57;;;;;;;6.63;4.53;;;13.10;99.90;;;;;;5091932;28;20123;-71
2021/09/20 06:57:23;;;;;;;8.85;4.97;;;13.10;99.90;;;;;;5093022;28;20115;-73
2021/09/20 06:59:48;;;;;;;7.75;5.32;;;13.10;99.90;;;;;;5091267;28;20040;-72
2021/09/20 07:02:14;;;;;;;7.10;4.38;;;13.10;99.90;;;;;;5092698;28;20044;-72
2021/09/20 07:04:40;;;;;;;5.20;4.25;;;13.10;99.90;;;;;;5092916;28;20090;-72
2021/09/20 07:07:05;;;;;;;7.88;4.78;;;13.20;99.90;;;;;;5093996;28;20044;-72
2021/09/20 07:09:31;;;;;;;10.52;4.88;;;13.20;99.90;;;;;;5096317;28;20047;-72
2021/09/20 07:11:56;;;;;;;6.43;4.60;;;13.30;99.90;;;;;;5096343;28;20086;-72
2021/09/20 07:14:22;;;;;;;8.02;4.65;;;13.30;99.90;;;;;;5094963;28;20036;-72
2021/09/20 07:16:48;;;;;;;7.25;4.53;;;13.30;99.90;;;;;;5096410;28;20036;-72
2021/09/20 07:19:13;;;;;;;7.97;4.70;;;13.30;99.90;;;;;;5096235;28;20058;-72
2021/09/20 07:21:39;;;;;;;7.55;4.10;;;13.40;99.90;;;;;;5096186;28;20040;-72
2021/09/20 07:24:05;;;;;;;6.93;4.15;;;13.40;99.90;;;;;;5096082;28;20428;-72
2021/09/20 07:26:31;;;;;;;10.45;4.30;;;13.40;99.90;;;;;;5094778;28;20071;-72
2021/09/20 07:28:57;;;;;;;8.00;5.07;;;13.50;99.90;;;;;;5095794;28;20043;-72
2021/09/20 07:31:23;;;;;;;8.00;4.30;;;13.50;99.90;;;;;;5094770;28;20043;-72
2021/09/20 07:33:49;;;;;;;7.25;4.35;;;13.50;99.90;;;;;;5096172;28;20042;-72
2021/09/20 07:36:15;;;;;;;7.28;4.80;;;13.50;99.90;;;;;;5095966;28;20081;-72
2021/09/20 07:38:42;;;;;;;4.53;3.15;;;13.50;99.90;;;;;;5095532;28;20090;-73
2021/09/20 07:41:08;;;;;;;6.43;4.07;;;13.50;99.90;;;;;;5094490;28;20415;-72
2021/09/20 07:43:34;;;;;;;6.55;4.47;;;13.60;99.90;;;;;;5096404;28;20062;-72
2021/09/20 07:46:00;;;;;;;8.80;4.40;;;13.60;99.90;;;;;;5094353;28;20044;-72
2021/09/20 07:48:27;;;;;;;7.65;3.88;;;13.70;99.90;;;;;;5095861;28;20044;-72
2021/09/20 07:50:53;;;;;;;6.38;4.78;;;13.70;99.90;;;;;;5095750;28;20048;-72
2021/09/20 07:53:18;;;;;;;9.88;3.95;;;13.70;99.90;;;;;;5095971;28;20039;-72
2021/09/20 07:55:44;;;;;;;8.80;4.25;;;13.80;99.90;;;;;;5094136;28;20048;-72
2021/09/20 07:58:12;;;;;;;6.78;4.18;;;13.80;99.90;;;;;;5095429;28;20066;-72
2021/09/20 08:00:40;;;;;;;8.77;4.65;;;13.90;99.90;;;;;;5095380;28;20036;-72
2021/09/20 08:03:06;;;;;;;7.57;4.05;;;13.90;99.90;;;;;;5095307;28;20113;-72
2021/09/20 08:05:33;;;;;;;8.15;4.80;;;13.80;99.90;;;;;;5095358;28;20035;-72
2021/09/20 08:07:59;;;;;;;8.63;4.38;;;13.90;99.90;;;;;;5095223;28;20388;-72
2021/09/20 08:10:25;;;;;;;7.10;4.95;;;13.90;99.90;;;;;;5094807;28;20036;-72
2021/09/20 08:12:50;;;;;;;11.52;5.65;;;13.90;99.90;;;;;;5095043;28;20039;-72
2021/09/20 08:15:16;;;;;;;8.50;5.00;;;14.00;99.90;;;;;;5077252;28;20064;-72
2021/09/20 08:17:42;;;;;;;9.45;5.43;;;14.00;99.90;;;;;;5094791;28;20036;-72
2021/09/20 08:20:10;;;;;;;11.38;5.20;;;14.10;99.90;;;;;;5092494;28;20051;-72
2021/09/20 08:22:36;;;;;;;7.05;4.05;;;14.10;99.90;;;;;;5094934;28;20043;-72
2021/09/20 08:25:02;;;;;;;7.82;4.32;;;14.20;99.90;;;;;;5094900;28;20036;-72
2021/09/20 08:27:28;;;;;;;7.40;4.32;;;14.20;99.90;;;;;;5093840;28;20044;-72
2021/09/20 08:29:54;;;;;;;8.00;4.38;;;14.20;99.90;;;;;;5094442;28;20503;-72
2021/09/20 08:32:20;;;;;;;5.75;3.85;;;14.20;99.90;;;;;;5093605;28;20108;-71
2021/09/20 08:34:47;;;;;;;5.60;3.60;;;14.20;99.90;;;;;;5094869;28;20035;-71
2021/09/20 08:37:12;;;;;;;4.78;3.35;;;14.30;99.90;;;;;;5095084;28;20077;-71
2021/09/20 08:39:38;;;;;;;8.32;3.90;;;14.30;99.90;;;;;;5084540;28;20070;-71
2021/09/20 08:42:04;;;;;;;6.38;3.30;;;14.30;99.90;;;;;;5074554;28;20044;-71
2021/09/20 08:44:30;;;;;;;10.88;2.97;;;14.30;99.90;;;;;;5073010;28;20055;-71
2021/09/20 08:46:56;;;;;;;4.38;3.33;;;14.30;99.90;;;;;;5074605;28;20041;-72
2021/09/20 08:49:24;;;;;;;5.07;3.72;;;14.40;99.90;;;;;;5074265;28;20385;-72
2021/09/20 08:51:54;;;;;;;9.20;2.72;;;14.40;99.90;;;;;;5072897;28;20051;-72
2021/09/20 08:54:27;;;;;;;6.45;3.22;;;14.40;99.90;;;;;;5072994;28;20048;-72
2021/09/20 08:56:53;;;;;;;4.57;2.53;;;14.40;99.90;;;;;;5073151;28;20051;-72
2021/09/20 08:59:20;;;;;;;9.90;3.45;;;14.50;99.90;;;;;;5073677;28;20033;-72
2021/09/20 09:01:52;;;;;;;4.78;2.88;;;14.50;99.90;;;;;;5073884;28;20041;-72
2021/09/20 09:04:27;;;;;;;4.85;3.33;;;14.50;99.90;;;;;;5073800;28;20094;-72
2021/09/20 09:07:14;;;;;;;9.25;2.50;;;14.50;99.90;;;;;;5073990;28;20122;-72
2021/09/20 09:09:51;;;;;;;6.22;2.67;;;14.50;99.90;;;;;;5072403;28;20051;-72
2021/09/20 09:12:25;;;;;;;6.55;3.13;;;14.50;99.90;;;;;;5074263;28;20041;-72
2021/09/20 09:14:55;;;;;;;4.78;3.08;;;14.60;99.90;;;;;;5072887;28;20519;-72
2021/09/20 09:17:29;;;;;;;6.25;2.88;;;14.60;99.90;;;;;;5073806;28;20047;-72
2021/09/20 09:20:09;;;;;;;5.10;2.63;;;14.70;99.90;;;;;;5073233;28;20043;-72
2021/09/20 09:22:43;;;;;;;9.25;2.80;;;14.70;99.90;;;;;;5072573;28;20036;-72
2021/09/20 09:25:17;;;;;;;7.95;3.03;;;14.70;99.90;;;;;;5072738;28;20385;-72
2021/09/20 09:27:45;;;;;;;6.70;3.00;;;14.80;99.90;;;;;;5073800;28;20083;-72
2021/09/20 09:30:21;;;;;;;5.30;2.35;;;14.80;99.90;;;;;;5072938;28;20052;-72
2021/09/20 09:33:01;;;;;;;6.53;3.17;;;14.90;99.90;;;;;;5072577;28;20480;-72
2021/09/20 09:35:30;;;;;;;4.20;2.30;;;15.00;99.90;;;;;;5073881;28;20037;-72
2021/09/20 09:38:01;;;;;;;4.95;3.25;;;14.90;99.90;;;;;;5073570;28;20606;-72
2021/09/20 09:40:27;;;;;;;5.15;2.85;;;15.00;99.90;;;;;;5073054;28;20044;-72
2021/09/20 09:43:02;;;;;;;7.05;2.70;;;15.00;99.90;;;;;;5073318;28;20045;-72
2021/09/20 09:45:33;;;;;;;4.60;2.90;;;15.00;99.90;;;;;;5072359;28;20041;-72
2021/09/20 09:48:15;;;;;;;5.82;3.00;;;15.10;99.90;;;;;;5073682;28;20468;-72
2021/09/20 09:50:47;;;;;;;4.70;2.60;;;15.20;99.90;;;;;;5072141;28;20040;-72
2021/09/20 09:53:28;;;;;;;3.63;3.08;;;15.20;99.90;;;;;;5073502;28;20051;-72
2021/09/20 09:55:56;;;;;;;4.63;3.30;;;15.30;99.90;;;;;;5073485;28;20107;-72
2021/09/20 09:58:22;;;;;;;7.93;3.05;;;15.30;99.90;;;;;;5054743;28;20419;-73
2021/09/20 10:00:48;;;;;;;4.88;2.85;;;15.50;99.90;;;;;;5072920;28;20048;-72
2021/09/20 10:03:15;;;;;;;6.57;3.40;;;15.70;99.90;;;;;;5071121;28;20051;-72
2021/09/20 10:05:55;;;;;;;4.68;2.83;;;15.80;99.90;;;;;;5071957;28;20037;-73
2021/09/20 10:08:22;;;;;;;3.90;2.65;;;15.90;99.90;;;;;;5071426;28;20040;-75
2021/09/20 10:10:47;;;;;;;4.47;2.60;;;16.00;98.70;;;;;;5070989;28;20040;-72
2021/09/20 10:13:14;;;;;;;4.75;2.40;;;16.10;97.90;;;;;;5073218;28;20044;-72
2021/09/20 10:15:40;;;;;;;5.28;3.65;;;16.10;97.70;;;;;;5073137;28;20442;-72
2021/09/20 10:18:06;;;;;;;6.72;3.15;;;16.20;97.40;;;;;;5072205;28;20074;-72
2021/09/20 10:20:32;;;;;;;4.18;2.90;;;16.20;96.20;;;;;;5072570;28;20130;-73
2021/09/20 10:22:59;;;;;;;8.10;2.38;;;16.30;95.90;;;;;;5070382;28;20072;-72
2021/09/20 10:25:28;;;;;;;5.95;2.65;;;16.30;95.60;;;;;;5073177;28;20036;-71
2021/09/20 10:27:54;;;;;;;4.95;2.13;;;16.40;93.00;;;;;;5071622;28;20044;-73
2021/09/20 10:30:33;;;;;;;4.25;2.22;;;16.30;91.60;;;;;;5072936;28;20072;-72
2021/09/20 10:33:05;;;;;;;3.85;2.25;;;16.40;91.50;;;;;;5072671;28;20037;-72
2021/09/20 10:35:36;;;;;;;3.70;2.17;;;16.40;90.90;;;;;;5073119;28;20099;-72
2021/09/20 10:38:19;;;;;;;3.05;2.17;;;16.40;89.80;;;;;;5073113;28;20507;-72
2021/09/20 10:41:08;;;;;;;3.83;2.38;;;16.40;86.80;;;;;;5072803;28;20044;-72
2021/09/20 10:43:36;;;;;;;5.05;1.88;;;16.50;87.70;;;;;;5076372;28;20047;-72
2021/09/20 10:46:03;;;;;;;4.63;1.60;;;16.50;82.90;;;;;;5076508;28;20048;-72
2021/09/20 10:48:33;;;;;;;4.18;2.08;;;16.60;82.90;;;;;;5076346;28;20036;-73
2021/09/20 10:51:24;;;;;;;4.38;2.13;;;16.70;80.20;;;;;;5075158;28;20058;-72
2021/09/20 10:54:13;;;;;;;4.25;2.38;;;16.70;78.50;;;;;;5075107;28;20048;-72
2021/09/20 10:56:40;;;;;;;3.78;1.55;;;16.70;76.50;;;;;;5076417;28;20040;-72
2021/09/20 10:59:07;;;;;;;2.72;1.63;;;16.70;74.80;;;;;;5076066;28;20033;-73
2021/09/20 11:01:34;;;;;;;2.63;1.50;;;16.80;74.50;;;;;;5075237;28;20389;-72
2021/09/20 11:04:09;;;;;;;1.85;1.40;;;16.80;70.70;;;;;;5058920;28;20037;-73
2021/09/20 11:06:37;;;;;;;2.80;1.67;;;16.80;69.60;;;;;;5076445;28;20446;-73
2021/09/20 11:09:05;;;;;;;2.85;1.58;;;16.70;71.20;;;;;;5075785;28;20110;-73
2021/09/20 11:11:37;;;;;;;3.00;0.82;;;16.70;69.50;;;;;;5076333;28;20040;-72
2021/09/20 11:14:35;;;;;;;2.20;1.20;;;16.60;68.20;;;;;;5076576;28;20127;-72
2021/09/20 11:17:20;;;;;;;2.00;1.40;;;16.60;69.60;;;;;;5076397;28;20041;-73
2021/09/20 11:19:47;;;;;;;3.30;1.77;;;16.50;69.60;;;;;;5075818;28;20076;-71
2021/09/20 11:22:15;;;;;;;3.10;1.45;;;16.50;70.60;;;;;;5076048;28;20082;-71
2021/09/20 11:25:03;;;;;;;3.78;1.38;;;16.50;69.70;;;;;;5073955;28;20547;-72
2021/09/20 11:27:36;;;;;;;3.85;1.38;;;16.50;70.10;;;;;;5073653;28;20476;-73
2021/09/20 11:30:04;;;;;;;;;;;16.50;69.30;;;;;;5074035;28;20086;-74
2021/09/20 11:32:30;;;;;;;3.55;1.60;;;16.40;69.10;;;;;;5072440;28;19966;-73
2021/09/20 11:34:58;;;;;;;4.07;1.55;;;16.30;70.20;;;;;;5072289;28;20052;-74
2021/09/20 11:37:29;;;;;;;2.97;1.70;;;16.40;71.30;;;;;;5073545;28;20090;-73
2021/09/20 11:39:58;;;;;;;3.72;1.77;;;16.40;69.10;;;;;;5075255;28;20036;-73
2021/09/20 11:42:39;;;;;;;4.28;1.67;;;16.40;70.20;;;;;;5075882;28;20090;-73
2021/09/20 11:45:21;;;;;;;1.52;1.00;;;16.40;69.00;;;;;;5074521;28;20496;-73
2021/09/20 11:47:52;;;;;;;6.75;1.77;;;16.50;68.30;;;;;;5074120;28;20086;-73
2021/09/20 11:50:22;;;;;;;3.53;1.35;;;16.50;67.60;;;;;;5075494;28;20090;-73
2021/09/20 11:52:51;;;;;;;2.90;1.40;;;16.50;66.30;;;;;;5074414;28;20376;-73
2021/09/20 11:55:23;;;;;;;3.20;1.10;;;16.60;66.90;;;;;;5075349;28;20049;-73
2021/09/20 11:57:54;;;;;;;3.72;1.30;;;16.60;67.00;;;;;;5075487;28;20049;-73
2021/09/20 12:00:23;;;;;;;2.78;1.40;;;16.50;63.80;;;;;;5073659;28;20060;-73
2021/09/20 12:02:50;;;;;;;2.45;1.13;;;16.60;64.70;;;;;;5074841;28;20075;-68
2021/09/20 12:05:20;;;;;;;2.08;0.95;;;16.70;64.30;;;;;;5075183;28;20040;-68
2021/09/20 12:07:54;;;;;;;2.83;1.30;;;16.90;58.60;;;;;;5075606;28;20040;-67
2021/09/20 12:10:23;;;;;;;3.22;1.08;;;17.00;57.90;;;;;;5075022;28;20051;-68
2021/09/20 12:12:52;;;;;;;2.72;1.70;;;17.00;58.00;;;;;;5074808;28;20496;-68
2021/09/20 12:15:21;;;;;;;2.78;1.17;;;17.10;57.30;;;;;;5075427;28;20051;-68
2021/09/20 12:17:46;;;;;;;2.28;1.10;;;17.10;57.80;;;;;;5075071;28;20051;-68
2021/09/20 12:20:13;;;;;;;2.58;1.33;;;17.20;58.70;;;;;;5073011;28;20041;-67
2021/09/20 12:22:43;;;;;;;2.03;1.20;;;17.30;58.80;;;;;;5075131;28;20199;-68
2021/09/20 12:25:33;;;;;;;4.15;1.40;;;17.30;59.00;;;;;;5074803;28;20432;-68
2021/09/20 12:28:00;;;;;;;3.17;1.40;;;17.40;59.30;;;;;;5073722;28;20048;-68
2021/09/20 12:30:28;;;;;;;3.30;1.00;;;17.40;59.70;;;;;;5074334;28;20040;-68
2021/09/20 12:33:12;;;;;;;2.45;1.15;;;17.50;57.30;;;;;;5075000;28;20085;-68
2021/09/20 12:35:40;;;;;;;3.67;1.27;;;17.60;56.00;;;;;;5074594;28;20032;-67
2021/09/20 12:38:32;;;;;;;3.30;1.63;;;17.50;54.90;;;;;;5074750;28;20045;-68
2021/09/20 12:41:09;;;;;;;5.47;1.08;;;17.30;56.20;;;;;;5074055;28;20040;-68
2021/09/20 12:43:35;;;;;;;2.72;1.30;;;17.20;57.50;;;;;;5075057;28;20036;-68
2021/09/20 12:46:15;;;;;;;2.72;1.20;;;17.10;57.80;;;;;;5073088;28;20036;-68
2021/09/20 12:48:44;;;;;;;3.60;2.00;;;17.10;58.20;;;;;;5074098;28;20025;-68